Time;durP1;ratioP1;P1;durP2;ratioP2;P2;SDS_P1;SDS_P2;PMS_P1;PMS_P2;Temp;Humidity;BMP_temperature;BMP_pressure;BME280_temperature;BME280_humidity;BME280_pressure;Samples;Min_cycle;Max_cycle;Signal;HPM_P1;HPM_P2
2023/03/07 00:02:56;;;;;;;0.22;0.22;;;;;;;4.44;100.00;99249.59;10386323;28;20061;-77
2023/03/07 00:07:58;;;;;;;0.10;0.10;;;;;;;4.57;100.00;99262.66;10401888;28;20094;-78
2023/03/07 00:13:00;;;;;;;0.03;0.03;;;;;;;4.66;100.00;99267.09;10386116;28;20524;-78
2023/03/07 00:18:02;;;;;;;0.00;0.00;;;;;;;4.68;100.00;99276.50;10389843;28;20045;-78
2023/03/07 00:23:03;;;;;;;0.80;0.73;;;;;;;4.62;100.00;99284.03;10415204;28;20049;-78
2023/03/07 00:28:05;;;;;;;0.15;0.15;;;;;;;4.66;100.00;99278.16;10416336;28;20394;-77
2023/03/07 00:33:06;;;;;;;0.80;0.80;;;;;;;4.72;100.00;99274.88;10413786;28;20467;-77
2023/03/07 00:38:08;;;;;;;0.10;0.10;;;;;;;4.84;100.00;99264.09;10412662;28;20080;-78
2023/03/07 00:43:10;;;;;;;0.05;0.05;;;;;;;4.77;100.00;99275.84;10411491;28;20144;-77
2023/03/07 00:48:11;;;;;;;0.10;0.10;;;;;;;4.74;100.00;99270.69;10385768;28;20049;-77
2023/03/07 00:53:13;;;;;;;0.38;0.38;;;;;;;4.91;100.00;99277.03;10374386;28;20393;-77
2023/03/07 00:58:18;;;;;;;2.00;0.63;;;;;;;4.84;100.00;99279.41;10414015;28;20492;-76
2023/03/07 01:03:20;;;;;;;0.98;0.43;;;;;;;5.02;100.00;99282.41;10406096;28;20455;-77
2023/03/07 01:08:22;;;;;;;0.38;0.38;;;;;;;4.91;100.00;99299.16;10404166;28;20095;-76
2023/03/07 01:13:25;;;;;;;0.85;0.25;;;;;;;5.08;100.00;99297.84;10409345;28;20128;-77
2023/03/07 01:18:26;;;;;;;0.10;0.10;;;;;;;4.97;100.00;99308.63;10397353;28;20073;-78
2023/03/07 01:23:28;;;;;;;0.10;0.10;;;;;;;5.01;100.00;99310.41;10409224;28;20516;-79
2023/03/07 01:28:30;;;;;;;0.08;0.08;;;;;;;4.85;100.00;99301.56;10406748;28;20056;-77
2023/03/07 01:33:31;;;;;;;0.00;0.00;;;;;;;4.97;100.00;99296.72;10394442;28;20048;-78
2023/03/07 01:38:33;;;;;;;0.17;0.17;;;;;;;4.98;100.00;99290.81;10391887;28;20493;-78
2023/03/07 01:43:38;;;;;;;0.38;0.38;;;;;;;4.81;100.00;99292.09;10400438;28;20128;-78
2023/03/07 01:48:47;;;;;;;0.28;0.28;;;;;;;4.68;100.00;99291.81;10409372;28;20083;-78
2023/03/07 01:53:51;;;;;;;0.00;0.00;;;;;;;4.89;100.00;99270.16;10420789;28;20048;-78
2023/03/07 01:58:54;;;;;;;0.75;0.47;;;;;;;4.91;100.00;99273.63;10420821;28;20054;-79
2023/03/07 02:04:16;;;;;;;0.75;0.52;;;;;;;4.86;100.00;99259.91;10400150;28;20497;-81
2023/03/07 02:09:20;;;;;;;2.05;0.30;;;;;;;4.93;100.00;99251.56;10394222;28;20070;-81
2023/03/07 02:14:22;;;;;;;0.10;0.10;;;;;;;4.91;100.00;99241.28;10404662;28;20046;-81
2023/03/07 02:19:37;;;;;;;2.92;0.52;;;;;;;4.93;100.00;99241.34;10413464;28;20059;-81
2023/03/07 02:24:47;;;;;;;0.10;0.10;;;;;;;4.97;100.00;99217.59;10401495;28;20420;-82
2023/03/07 02:29:51;;;;;;;0.00;0.00;;;;;;;5.07;100.00;99222.09;10424626;28;20042;-81
2023/03/07 02:34:52;;;;;;;0.57;0.43;;;;;;;5.08;100.00;99208.50;10415187;28;20042;-81
2023/03/07 02:39:59;;;;;;;0.30;0.30;;;;;;;4.96;100.00;99195.47;10399568;28;20049;-81
2023/03/07 02:45:08;;;;;;;0.17;0.17;;;;;;;4.96;100.00;99209.94;10407357;28;20045;-81
2023/03/07 02:50:13;;;;;;;0.33;0.20;;;;;;;4.94;100.00;99212.47;10404510;28;20081;-82
2023/03/07 02:55:18;;;;;;;0.13;0.13;;;;;;;4.20;100.00;99220.97;10397783;28;20073;-80
2023/03/07 03:00:26;;;;;;;0.03;0.03;;;;;;;4.54;100.00;99186.06;10407401;28;20077;-79
2023/03/07 03:05:27;;;;;;;0.28;0.28;;;;;;;4.61;100.00;99170.06;10413411;28;20065;-80
2023/03/07 03:10:31;;;;;;;0.10;0.10;;;;;;;4.59;100.00;99171.72;10413293;28;20124;-81
2023/03/07 03:15:34;;;;;;;0.00;0.00;;;;;;;4.50;100.00;99181.72;10390361;28;20065;-80
2023/03/07 03:20:41;;;;;;;0.00;0.00;;;;;;;4.48;100.00;99191.03;10399786;28;20137;-80
2023/03/07 03:25:42;;;;;;;0.30;0.30;;;;;;;4.45;100.00;99190.13;10400905;28;20053;-77
2023/03/07 03:30:44;;;;;;;2.60;0.52;;;;;;;4.50;100.00;99181.72;10392024;28;20068;-77
2023/03/07 03:35:46;;;;;;;0.38;0.20;;;;;;;4.47;100.00;99179.94;10417301;28;20037;-77
2023/03/07 03:40:48;;;;;;;0.00;0.00;;;;;;;4.48;100.00;99170.63;10386960;28;20479;-77
2023/03/07 03:45:56;;;;;;;0.25;0.25;;;;;;;4.51;100.00;99150.28;10403551;28;20050;-77
2023/03/07 03:51:03;;;;;;;0.30;0.30;;;;;;;4.41;100.00;99129.69;10381088;28;20159;-77
2023/03/07 03:56:10;;;;;;;0.00;0.00;;;;;;;4.39;100.00;99118.59;10380596;28;20050;-76
2023/03/07 04:01:12;;;;;;;0.03;0.03;;;;;;;4.41;100.00;99101.63;10401469;28;20045;-77
2023/03/07 04:06:18;;;;;;;0.88;0.57;;;;;;;4.41;100.00;99103.31;10407499;28;20470;-76
2023/03/07 04:11:21;;;;;;;0.75;0.43;;;;;;;4.50;100.00;99100.13;10386507;28;20033;-77
2023/03/07 04:16:24;;;;;;;0.40;0.40;;;;;;;4.56;100.00;99097.69;10412513;28;20041;-77
2023/03/07 04:21:25;;;;;;;0.20;0.20;;;;;;;4.57;100.00;99100.25;10415126;28;20485;-78
2023/03/07 04:26:30;;;;;;;0.17;0.10;;;;;;;4.54;100.00;99105.28;10389250;28;20048;-78
2023/03/07 04:31:32;;;;;;;0.90;0.65;;;;;;;4.55;100.00;99103.63;10417070;28;20387;-78
2023/03/07 04:36:36;;;;;;;0.70;0.45;;;;;;;4.56;100.00;99102.78;10403132;28;20055;-77
2023/03/07 04:41:39;;;;;;;0.25;0.25;;;;;;;4.45;100.00;99090.66;10409554;28;20041;-77
2023/03/07 04:46:49;;;;;;;0.00;0.00;;;;;;;4.57;100.00;99089.22;10414233;28;20053;-77
2023/03/07 04:51:51;;;;;;;0.40;0.40;;;;;;;4.57;100.00;99086.66;10394994;28;20049;-77
2023/03/07 04:56:53;;;;;;;0.77;0.77;;;;;;;4.47;100.00;99089.84;10390519;28;20049;-77
2023/03/07 05:01:55;;;;;;;0.00;0.00;;;;;;;4.56;100.00;99088.34;10402403;28;20484;-77
2023/03/07 05:06:57;;;;;;;0.90;0.30;;;;;;;4.55;100.00;99080.66;10411505;28;20049;-77
2023/03/07 05:11:59;;;;;;;0.25;0.25;;;;;;;4.37;100.00;99082.00;10398948;28;20116;-77
2023/03/07 05:17:01;;;;;;;0.00;0.00;;;;;;;4.39;100.00;99105.00;10389809;28;20496;-76
2023/03/07 05:22:04;;;;;;;0.40;0.40;;;;;;;4.38;100.00;99111.75;10392719;28;20071;-77
2023/03/07 05:27:06;;;;;;;0.57;0.40;;;;;;;4.33;100.00;99118.47;10426306;28;20408;-77
2023/03/07 05:32:09;;;;;;;0.00;0.00;;;;;;;4.26;100.00;99127.63;10401799;28;20045;-77
2023/03/07 05:37:13;;;;;;;0.00;0.00;;;;;;;4.28;100.00;99120.91;10383985;28;20053;-77
2023/03/07 05:42:15;;;;;;;0.00;0.00;;;;;;;4.33;100.00;99123.56;10427501;28;20042;-78
2023/03/07 05:47:18;;;;;;;0.00;0.00;;;;;;;4.38;100.00;99121.97;10396197;28;20077;-78
2023/03/07 05:52:19;;;;;;;0.00;0.00;;;;;;;4.18;100.00;99131.69;10411719;28;20048;-76
2023/03/07 05:57:23;;;;;;;0.00;0.00;;;;;;;4.31;100.00;99132.84;10400130;28;20046;-76
2023/03/07 06:02:27;;;;;;;0.20;0.20;;;;;;;4.28;100.00;99138.75;10418772;28;20480;-78
2023/03/07 06:07:28;;;;;;;0.17;0.17;;;;;;;4.24;100.00;99126.78;10386554;28;20053;-78
2023/03/07 06:12:30;;;;;;;0.10;0.10;;;;;;;4.27;100.00;99124.28;10392696;28;20042;-78
2023/03/07 06:17:32;;;;;;;0.20;0.15;;;;;;;4.28;100.00;99114.94;10402985;28;20069;-77
2023/03/07 06:22:36;;;;;;;1.35;0.50;;;;;;;4.35;100.00;99108.28;10404409;28;20064;-77
2023/03/07 06:27:40;;;;;;;1.38;0.22;;;;;;;4.22;100.00;99118.22;10396224;28;20136;-77
2023/03/07 06:32:42;;;;;;;0.00;0.00;;;;;;;3.70;100.00;99129.72;10410377;28;20500;-76
2023/03/07 06:37:44;;;;;;;0.00;0.00;;;;;;;3.54;100.00;99156.47;10419478;28;20045;-77
2023/03/07 06:42:46;;;;;;;0.00;0.00;;;;;;;3.40;100.00;99146.78;10395880;28;20049;-77
2023/03/07 06:47:49;;;;;;;0.63;0.50;;;;;;;3.49;100.00;99149.56;10398733;28;20388;-77
2023/03/07 06:52:52;;;;;;;0.75;0.35;;;;;;;2.09;100.00;99203.97;10403328;28;20133;-76
2023/03/07 06:57:54;;;;;;;0.00;0.00;;;;;;;1.41;100.00;99197.47;10408933;28;20531;-77
2023/03/07 07:02:55;;;;;;;0.00;0.00;;;;;;;1.34;100.00;99205.69;10385857;28;20041;-77
2023/03/07 07:07:57;;;;;;;0.00;0.00;;;;;;;1.46;100.00;99206.09;10377630;28;20057;-77
2023/03/07 07:12:59;;;;;;;0.00;0.00;;;;;;;1.45;100.00;99203.53;10415390;28;20497;-78
2023/03/07 07:18:02;;;;;;;0.00;0.00;;;;;;;1.60;100.00;99193.06;10402365;28;20428;-78
2023/03/07 07:23:06;;;;;;;2.22;1.35;;;;;;;1.58;100.00;99196.41;10393504;28;20042;-77
2023/03/07 07:28:08;;;;;;;0.00;0.00;;;;;;;1.63;100.00;99203.28;10410676;28;20068;-77
2023/03/07 07:33:09;;;;;;;0.00;0.00;;;;;;;1.69;100.00;99194.22;10401724;28;20046;-78
2023/03/07 07:38:13;;;;;;;0.00;0.00;;;;;;;1.74;100.00;99196.91;10394726;28;20149;-78
2023/03/07 07:43:16;;;;;;;0.00;0.00;;;;;;;1.78;100.00;99198.75;10421409;28;20069;-77
2023/03/07 07:48:32;;;;;;;0.00;0.00;;;;;;;1.88;100.00;99195.72;10396378;28;20056;-77
2023/03/07 07:53:34;;;;;;;0.08;0.08;;;;;;;1.96;100.00;99195.94;10399071;28;20040;-77
2023/03/07 07:58:36;;;;;;;0.00;0.00;;;;;;;2.00;100.00;99194.38;10384532;28;20052;-77
2023/03/07 08:03:38;;;;;;;0.00;0.00;;;;;;;1.99;100.00;99212.97;10418618;28;20045;-77
2023/03/07 08:08:39;;;;;;;0.00;0.00;;;;;;;2.07;100.00;99211.53;10408703;28;20068;-76
2023/03/07 08:13:41;;;;;;;0.00;0.00;;;;;;;2.03;100.00;99220.72;10416341;28;20041;-76
2023/03/07 08:18:52;;;;;;;0.00;0.00;;;;;;;2.27;100.00;99218.97;10399604;28;20462;-76
2023/03/07 08:23:54;;;;;;;0.00;0.00;;;;;;;2.41;100.00;99216.84;10416048;28;20041;-76
2023/03/07 08:28:57;;;;;;;0.00;0.00;;;;;;;2.45;100.00;99209.38;10413890;28;20053;-77
2023/03/07 08:33:58;;;;;;;0.20;0.20;;;;;;;2.18;100.00;99222.94;10417398;28;20052;-76
2023/03/07 08:39:00;;;;;;;0.00;0.00;;;;;;;2.49;100.00;99207.78;10405544;28;20087;-78
2023/03/07 08:44:02;;;;;;;0.00;0.00;;;;;;;2.29;100.00;99219.84;10405325;28;20049;-76
2023/03/07 08:49:03;;;;;;;0.00;0.00;;;;;;;2.24;100.00;99221.38;10410276;28;20046;-77
2023/03/07 08:54:05;;;;;;;0.00;0.00;;;;;;;2.42;100.00;99218.56;10401669;28;20037;-78
2023/03/07 08:59:07;;;;;;;0.00;0.00;;;;;;;2.33;100.00;99225.09;10411923;28;20049;-78
2023/03/07 09:04:08;;;;;;;0.00;0.00;;;;;;;2.38;100.00;99217.59;10404136;28;20051;-77
2023/03/07 09:09:11;;;;;;;0.13;0.13;;;;;;;2.26;100.00;99217.22;10412823;28;20554;-77
2023/03/07 09:14:13;;;;;;;0.00;0.00;;;;;;;2.26;100.00;99217.22;10395516;28;20104;-75
2023/03/07 09:19:14;;;;;;;0.00;0.00;;;;;;;2.44;100.00;99227.97;10412121;28;20239;-77
2023/03/07 09:24:16;;;;;;;0.00;0.00;;;;;;;2.53;100.00;99215.56;10411354;28;20041;-77
2023/03/07 09:29:18;;;;;;;0.00;0.00;;;;;;;2.59;100.00;99206.38;10398941;28;20551;-77
2023/03/07 09:34:19;;;;;;;0.00;0.00;;;;;;;2.83;100.00;99202.03;10383097;28;20088;-77
2023/03/07 09:39:21;;;;;;;0.00;0.00;;;;;;;2.95;100.00;99201.53;10406518;28;20042;-78
2023/03/07 09:44:40;;;;;;;0.00;0.00;;;;;;;2.90;100.00;99192.03;10416062;28;20049;-77
2023/03/07 09:50:01;;;;;;;0.00;0.00;;;;;;;2.87;100.00;99187.72;10404662;28;20053;-81
2023/03/07 09:55:09;;;;;;;0.00;0.00;;;;;;;2.97;100.00;99191.41;10413345;28;20045;-81
2023/03/07 10:00:26;;;;;;;0.20;0.20;;;;;;;3.25;100.00;99184.53;10413120;28;20056;-81
2023/03/07 10:05:44;;;;;;;0.00;0.00;;;;;;;2.93;100.00;99198.09;10429617;28;20116;-80
2023/03/07 10:11:09;;;;;;;0.00;0.00;;;;;;;3.41;100.00;99191.78;10405056;28;20049;-81
2023/03/07 10:16:43;;;;;;;0.00;0.00;;;;;;;3.32;100.00;99201.69;10415097;28;20087;-81
2023/03/07 10:22:04;;;;;;;0.00;0.00;;;;;;;3.38;100.00;99191.72;10417533;28;20046;-81
2023/03/07 10:27:07;;;;;;;;;;;;;;;3.37;100.00;99184.91;10422087;28;20076;-81
2023/03/07 10:32:33;;;;;;;0.08;0.08;;;;;;;3.61;100.00;99176.19;10418081;28;20020;-81
2023/03/07 10:37:45;;;;;;;0.30;0.17;;;;;;;3.37;100.00;99189.09;10413432;28;20053;-81
2023/03/07 10:42:46;;;;;;;0.00;0.00;;;;;;;3.67;100.00;99185.66;10424972;28;20080;-81
2023/03/07 10:47:48;;;;;;;0.00;0.00;;;;;;;3.60;100.00;99182.09;10414979;28;20095;-80
2023/03/07 10:52:57;;;;;;;0.80;0.10;;;;;;;3.34;100.00;99194.97;10418167;28;20089;-79
2023/03/07 10:58:18;;;;;;;0.00;0.00;;;;;;;3.40;100.00;99197.69;10417368;28;20045;-81
2023/03/07 11:03:24;;;;;;;0.00;0.00;;;;;;;3.91;100.00;99193.09;10420646;28;20058;-81
2023/03/07 11:08:34;;;;;;;0.00;0.00;;;;;;;3.97;100.00;99204.28;10411354;28;20049;-81
2023/03/07 11:13:39;;;;;;;0.65;0.22;;;;;;;4.08;100.00;99207.09;10422636;28;20054;-80
2023/03/07 11:18:43;;;;;;;1.38;0.85;;;;;;;3.68;100.00;99231.56;10421636;28;20049;-80
2023/03/07 11:23:57;;;;;;;0.45;0.45;;;;;;;3.58;100.00;99239.75;10423575;28;20077;-80
2023/03/07 11:29:08;;;;;;;0.00;0.00;;;;;;;3.79;100.00;99237.78;10417193;28;20068;-81
2023/03/07 11:34:25;;;;;;;0.00;0.00;;;;;;;3.97;100.00;99241.66;10436751;28;20073;-80
2023/03/07 11:39:54;;;;;;;0.52;0.47;;;;;;;4.12;100.00;99249.69;10413684;28;20049;-77
2023/03/07 11:45:14;;;;;;;0.10;0.10;;;;;;;4.38;100.00;99262.19;10413536;28;20046;-77
2023/03/07 11:50:22;;;;;;;0.00;0.00;;;;;;;4.36;100.00;99268.09;10409117;28;20053;-77
2023/03/07 11:55:46;;;;;;;0.15;0.05;;;;;;;4.48;100.00;99268.38;10411904;28;20040;-77
2023/03/07 12:00:59;;;;;;;0.00;0.00;;;;;;;4.24;100.00;99295.03;10418827;28;20049;-77
2023/03/07 12:06:22;;;;;;;3.15;1.95;;;;;;;4.28;100.00;99286.59;10411305;28;20041;-77
2023/03/07 12:11:27;;;;;;;0.00;0.00;;;;;;;3.90;100.00;99293.28;10407788;28;20045;-76
2023/03/07 12:16:56;;;;;;;0.00;0.00;;;;;;;4.35;100.00;99282.53;10389405;28;20076;-77
2023/03/07 12:22:04;;;;;;;0.00;0.00;;;;;;;4.84;100.00;99262.41;10411316;28;20064;-77
2023/03/07 12:27:18;;;;;;;1.33;1.23;;;;;;;4.81;100.00;99272.56;10403066;28;20047;-78
2023/03/07 12:32:24;;;;;;;0.00;0.00;;;;;;;4.51;100.00;99288.88;10409518;28;20053;-77
2023/03/07 12:37:40;;;;;;;0.00;0.00;;;;;;;4.48;100.00;99300.69;10411568;28;20106;-77
2023/03/07 12:42:41;;;;;;;0.10;0.10;;;;;;;4.60;100.00;99308.63;10406218;28;20493;-77
2023/03/07 12:47:43;;;;;;;0.10;0.10;;;;;;;4.66;100.00;99318.13;10407201;28;20095;-78
2023/03/07 12:52:52;;;;;;;1.13;0.55;;;;;;;4.52;100.00;99331.41;10408668;28;20049;-77
2023/03/07 12:58:17;;;;;;;0.00;0.00;;;;;;;4.41;100.00;99328.59;10409571;28;20061;-77
2023/03/07 13:03:37;;;;;;;0.00;0.00;;;;;;;3.97;100.00;99325.75;10421011;28;20485;-76
2023/03/07 13:08:41;;;;;;;0.98;0.28;;;;;;;3.96;100.00;99319.75;10407901;28;20042;-77
2023/03/07 13:13:43;;;;;;;0.00;0.00;;;;;;;3.81;100.00;99312.56;10406373;28;20069;-77
2023/03/07 13:18:45;;;;;;;0.00;0.00;;;;;;;3.38;100.00;99318.13;10406240;28;20045;-76
2023/03/07 13:23:47;;;;;;;0.10;0.10;;;;;;;3.35;100.00;99302.78;10408668;28;20084;-77
2023/03/07 13:28:50;;;;;;;0.00;0.00;;;;;;;2.96;100.00;99315.22;10409509;28;20057;-77
2023/03/07 13:33:52;;;;;;;0.00;0.00;;;;;;;2.90;100.00;99302.31;10405343;28;20042;-78
2023/03/07 13:38:53;;;;;;;0.00;0.00;;;;;;;3.01;100.00;99292.47;10408952;28;20057;-78
2023/03/07 13:43:58;;;;;;;0.00;0.00;;;;;;;2.84;100.00;99290.25;10417469;28;20049;-79
2023/03/07 13:49:03;;;;;;;0.00;0.00;;;;;;;2.66;100.00;99284.56;10416203;28;20417;-78
2023/03/07 13:54:11;;;;;;;0.00;0.00;;;;;;;2.67;100.00;99286.31;10407454;28;20165;-78
2023/03/07 13:59:13;;;;;;;0.00;0.00;;;;;;;2.62;100.00;99292.94;10415413;28;20496;-79
2023/03/07 14:04:26;;;;;;;0.00;0.00;;;;;;;2.73;100.00;99281.41;10414479;28;20112;-78
2023/03/07 14:09:47;;;;;;;0.00;0.00;;;;;;;2.90;100.00;99283.63;10416522;28;20076;-78
2023/03/07 14:15:21;;;;;;;0.00;0.00;;;;;;;3.04;100.00;99292.53;10410247;28;20489;-78
2023/03/07 14:20:40;;;;;;;0.00;0.00;;;;;;;3.26;100.00;99305.91;10405774;28;20044;-77
2023/03/07 14:25:48;;;;;;;0.00;0.00;;;;;;;3.31;100.00;99327.28;10415846;28;20057;-77
2023/03/07 14:31:01;;;;;;;0.00;0.00;;;;;;;3.77;100.00;99326.03;10414428;28;20103;-78
2023/03/07 14:36:17;;;;;;;0.00;0.00;;;;;;;3.59;100.00;99363.72;10411265;28;20045;-77
2023/03/07 14:41:34;;;;;;;0.00;0.00;;;;;;;4.02;100.00;99371.72;10402714;28;20319;-77
2023/03/07 14:47:07;;;;;;;0.00;0.00;;;;;;;3.48;100.00;99401.59;10410249;28;20068;-77
2023/03/07 14:52:13;;;;;;;0.00;0.00;;;;;;;3.48;100.00;99412.63;10418081;28;20108;-76
2023/03/07 14:57:32;;;;;;;0.00;0.00;;;;;;;3.54;100.00;99416.22;10418340;28;20037;-77
2023/03/07 15:02:33;;;;;;;0.00;0.00;;;;;;;3.65;100.00;99409.75;10413154;28;20045;-77
2023/03/07 15:07:35;;;;;;;0.00;0.00;;;;;;;3.47;100.00;99400.72;10413172;28;20050;-77
2023/03/07 15:12:37;;;;;;;0.00;0.00;;;;;;;3.64;100.00;99398.72;10407591;28;20045;-77
2023/03/07 15:17:42;;;;;;;0.00;0.00;;;;;;;3.54;100.00;99406.03;10412478;28;20118;-77
2023/03/07 15:22:45;;;;;;;0.10;0.10;;;;;;;3.63;100.00;99406.28;10401229;28;20037;-77
2023/03/07 15:28:14;;;;;;;0.00;0.00;;;;;;;3.47;100.00;99426.19;10407927;28;20046;-76
2023/03/07 15:33:18;;;;;;;0.00;0.00;;;;;;;3.05;100.00;99451.16;10410292;28;20075;-77
2023/03/07 15:38:24;;;;;;;0.00;0.00;;;;;;;2.43;100.00;99456.69;10419022;28;20049;-77
2023/03/07 15:43:33;;;;;;;0.00;0.00;;;;;;;1.87;100.00;99435.25;10424000;28;20044;-78
2023/03/07 15:48:36;;;;;;;0.00;0.00;;;;;;;1.77;100.00;99415.38;10407247;28;20056;-79
2023/03/07 15:53:40;;;;;;;0.20;0.20;;;;;;;1.75;100.00;99406.84;10425195;28;20100;-78
2023/03/07 15:58:43;;;;;;;0.00;0.00;;;;;;;2.05;100.00;99401.13;10400764;28;20042;-78
2023/03/07 16:03:57;;;;;;;0.00;0.00;;;;;;;2.41;100.00;99397.31;10410876;28;20041;-78
2023/03/07 16:08:58;;;;;;;0.10;0.10;;;;;;;2.29;100.00;99395.19;10412125;28;20096;-78
2023/03/07 16:14:00;;;;;;;0.00;0.00;;;;;;;2.38;100.00;99395.53;10414007;28;20547;-77
2023/03/07 16:19:02;;;;;;;0.00;0.00;;;;;;;2.18;100.00;99402.44;10411097;28;20045;-78
2023/03/07 16:24:04;;;;;;;0.00;0.00;;;;;;;2.12;100.00;99402.25;10411163;28;20511;-78
2023/03/07 16:29:09;;;;;;;0.00;0.00;;;;;;;1.98;100.00;99389.03;10406979;28;20041;-78
2023/03/07 16:34:17;;;;;;;0.00;0.00;;;;;;;2.31;100.00;99375.81;10417850;28;20425;-78
2023/03/07 16:39:19;;;;;;;0.00;0.00;;;;;;;2.20;100.00;99378.81;10397953;28;20052;-77
2023/03/07 16:44:22;;;;;;;0.00;0.00;;;;;;;2.27;100.00;99368.91;10400034;28;20087;-78
2023/03/07 16:49:24;;;;;;;0.00;0.00;;;;;;;2.42;100.00;99371.94;10419259;28;20060;-78
2023/03/07 16:54:25;;;;;;;0.00;0.00;;;;;;;2.33;100.00;99377.56;10416046;28;20128;-78
2023/03/07 16:59:36;;;;;;;0.00;0.00;;;;;;;2.21;100.00;99383.09;10419673;28;20072;-78
2023/03/07 17:04:37;;;;;;;0.00;0.00;;;;;;;2.18;100.00;99377.94;10409588;28;20049;-77
2023/03/07 17:09:40;;;;;;;1.65;0.60;;;;;;;1.92;100.00;99373.56;10393829;28;20500;-78
2023/03/07 17:14:43;;;;;;;0.00;0.00;;;;;;;1.77;100.00;99379.81;10407720;28;20386;-78
2023/03/07 17:19:44;;;;;;;0.00;0.00;;;;;;;2.01;100.00;99369.69;10404924;28;20053;-78
2023/03/07 17:24:46;;;;;;;0.00;0.00;;;;;;;1.91;100.00;99365.09;10405205;28;20448;-78
2023/03/07 17:29:51;;;;;;;0.00;0.00;;;;;;;1.85;100.00;99369.97;10406198;28;20061;-78
2023/03/07 17:34:53;;;;;;;0.00;0.00;;;;;;;1.92;100.00;99373.56;10399553;28;20057;-78
2023/03/07 17:39:54;;;;;;;0.00;0.00;;;;;;;1.97;100.00;99367.84;10408510;28;20049;-78
2023/03/07 17:44:56;;;;;;;0.00;0.00;;;;;;;1.84;100.00;99363.16;10414894;28;20107;-78
2023/03/07 17:50:00;;;;;;;0.00;0.00;;;;;;;1.84;100.00;99356.38;10405098;28;20057;-77
2023/03/07 17:55:02;;;;;;;0.00;0.00;;;;;;;1.89;100.00;99370.13;10407769;28;20045;-78
2023/03/07 18:00:11;;;;;;;0.10;0.10;;;;;;;2.02;100.00;99375.66;10404919;28;20493;-77
2023/03/07 18:05:13;;;;;;;0.53;0.33;;;;;;;2.10;100.00;99380.97;10407949;28;20050;-78
2023/03/07 18:10:16;;;;;;;0.10;0.10;;;;;;;2.09;100.00;99390.28;10407228;28;20354;-78
2023/03/07 18:15:20;;;;;;;0.10;0.10;;;;;;;2.09;100.00;99392.84;10405299;28;20428;-77
2023/03/07 18:20:24;;;;;;;0.00;0.00;;;;;;;2.19;100.00;99389.81;10407429;28;20072;-77
2023/03/07 18:25:25;;;;;;;0.00;0.00;;;;;;;2.31;100.00;99393.59;10410217;28;20041;-77
2023/03/07 18:30:28;;;;;;;0.00;0.00;;;;;;;2.35;100.00;99397.94;10413509;28;20140;-78
2023/03/07 18:35:29;;;;;;;0.30;0.15;;;;;;;2.37;100.00;99414.13;10411992;28;20099;-78
2023/03/07 18:40:31;;;;;;;0.00;0.00;;;;;;;2.37;100.00;99416.66;10418039;28;20052;-77
2023/03/07 18:45:33;;;;;;;0.00;0.00;;;;;;;2.44;100.00;99421.16;10423923;28;20095;-76
2023/03/07 18:50:34;;;;;;;0.05;0.05;;;;;;;2.43;100.00;99434.66;10416029;28;20053;-75
2023/03/07 18:55:37;;;;;;;0.08;0.08;;;;;;;2.24;100.00;99432.31;10429110;28;20045;-75
2023/03/07 19:00:39;;;;;;;0.00;0.00;;;;;;;2.40;100.00;99434.59;10417001;28;20049;-75
2023/03/07 19:05:46;;;;;;;0.10;0.10;;;;;;;1.49;100.00;99475.25;10432716;28;20029;-77
2023/03/07 19:10:48;;;;;;;0.10;0.10;;;;;;;1.08;100.00;99482.09;10416703;28;20049;-77
2023/03/07 19:15:49;;;;;;;0.75;0.75;;;;;;;0.93;100.00;99473.00;10417750;28;20037;-79
2023/03/07 19:20:51;;;;;;;0.00;0.00;;;;;;;1.10;100.00;99465.25;10404304;28;20534;-79
2023/03/07 19:25:53;;;;;;;0.00;0.00;;;;;;;1.08;100.00;99449.97;10420298;28;20095;-79
2023/03/07 19:30:56;;;;;;;0.00;0.00;;;;;;;0.95;100.00;99456.19;10402006;28;20042;-79
2023/03/07 19:36:06;;;;;;;0.30;0.30;;;;;;;1.05;100.00;99464.19;10415755;28;20482;-80
2023/03/07 19:41:11;;;;;;;0.00;0.00;;;;;;;0.94;100.00;99476.44;10415755;28;20136;-78
2023/03/07 19:46:17;;;;;;;0.00;0.00;;;;;;;0.87;100.00;99487.13;10437710;28;20048;-77
2023/03/07 19:51:21;;;;;;;0.00;0.00;;;;;;;0.76;100.00;99500.22;10424325;28;20500;-76
2023/03/07 19:56:29;;;;;;;0.00;0.00;;;;;;;0.69;100.00;99508.34;10408786;28;20041;-77
2023/03/07 20:01:30;;;;;;;0.30;0.30;;;;;;;0.70;100.00;99506.69;10429608;28;20040;-77
2023/03/07 20:06:32;;;;;;;0.00;0.00;;;;;;;0.66;100.00;99518.38;10416014;28;20475;-77
2023/03/07 20:11:35;;;;;;;0.00;0.00;;;;;;;0.56;100.00;99524.69;10398751;28;20045;-77
2023/03/07 20:16:37;;;;;;;0.00;0.00;;;;;;;0.54;100.00;99533.91;10395102;28;20049;-77
2023/03/07 20:21:41;;;;;;;0.00;0.00;;;;;;;0.57;100.00;99526.44;10398206;28;20053;-77
2023/03/07 20:26:43;;;;;;;0.00;0.00;;;;;;;0.35;100.00;99536.41;10426875;28;20091;-77
2023/03/07 20:31:46;;;;;;;0.00;0.00;;;;;;;0.42;100.00;99544.38;10401910;28;20057;-76
2023/03/07 20:36:48;;;;;;;0.30;0.30;;;;;;;0.38;100.00;99539.94;10409983;28;20045;-77
2023/03/07 20:41:50;;;;;;;0.00;0.00;;;;;;;0.13;100.00;99558.22;10411914;28;20049;-77
2023/03/07 20:46:52;;;;;;;0.00;0.00;;;;;;;0.06;100.00;99557.09;10414631;28;20148;-77
2023/03/07 20:51:53;;;;;;;0.00;0.00;;;;;;;0.01;100.00;99561.06;10394032;28;20083;-77
2023/03/07 20:56:55;;;;;;;0.00;0.00;;;;;;;-0.11;100.00;99565.56;10426517;28;20459;-76
2023/03/07 21:01:57;;;;;;;0.52;0.35;;;;;;;-0.10;100.00;99555.50;10416165;28;20107;-78
2023/03/07 21:06:58;;;;;;;0.35;0.35;;;;;;;-0.06;100.00;99551.44;10421824;28;20045;-77
2023/03/07 21:12:00;;;;;;;0.00;0.00;;;;;;;-0.14;100.00;99556.16;10403769;28;20049;-76
2023/03/07 21:17:02;;;;;;;0.00;0.00;;;;;;;-0.15;100.00;99564.56;10425716;28;20083;-76
2023/03/07 21:22:06;;;;;;;0.03;0.03;;;;;;;-0.06;100.00;99559.94;10398496;28;20049;-76
2023/03/07 21:27:08;;;;;;;0.00;0.00;;;;;;;-0.47;100.00;99570.59;10413988;28;20489;-77
2023/03/07 21:32:09;;;;;;;0.00;0.00;;;;;;;-0.53;100.00;99566.09;10436876;28;20046;-77
2023/03/07 21:37:11;;;;;;;0.00;0.00;;;;;;;-0.34;100.00;99565.34;10414469;28;20137;-79
2023/03/07 21:42:13;;;;;;;0.50;0.40;;;;;;;-0.19;100.00;99558.47;10409120;28;20137;-79
2023/03/07 21:47:16;;;;;;;0.10;0.10;;;;;;;-0.38;100.00;99574.44;10406560;28;20060;-79
2023/03/07 21:52:17;;;;;;;0.00;0.00;;;;;;;-0.50;100.00;99584.84;10381285;28;20057;-79
2023/03/07 21:57:19;;;;;;;0.10;0.10;;;;;;;-0.72;100.00;99575.34;10393681;28;20100;-79
2023/03/07 22:02:21;;;;;;;0.00;0.00;;;;;;;-0.65;100.00;99574.84;10414996;28;20084;-79
2023/03/07 22:07:23;;;;;;;0.00;0.00;;;;;;;-0.65;100.00;99572.31;10391260;28;20115;-77
2023/03/07 22:12:25;;;;;;;0.20;0.20;;;;;;;-0.43;100.00;99578.41;10417313;28;20038;-79
2023/03/07 22:17:26;;;;;;;0.10;0.10;;;;;;;-0.35;100.00;99587.25;10395457;28;20033;-79
2023/03/07 22:22:30;;;;;;;0.80;0.80;;;;;;;-0.35;100.00;99591.44;10416462;28;20056;-80
2023/03/07 22:27:32;;;;;;;1.10;0.88;;;;;;;-0.41;100.00;99611.38;10416682;28;20111;-80
2023/03/07 22:32:34;;;;;;;0.05;0.05;;;;;;;-0.54;100.00;99620.03;10415652;28;20052;-80
2023/03/07 22:37:35;;;;;;;0.00;0.00;;;;;;;-0.92;100.00;99636.66;10415418;28;20566;-80
2023/03/07 22:42:37;;;;;;;1.02;0.40;;;;;;;-1.07;100.00;99624.97;10414293;28;20099;-79
2023/03/07 22:47:38;;;;;;;0.40;0.40;;;;;;;-0.87;100.00;99610.81;10413871;28;20056;-80
2023/03/07 22:52:40;;;;;;;0.55;0.55;;;;;;;-0.94;100.00;99610.44;10414297;28;20131;-79
2023/03/07 22:57:42;;;;;;;0.08;0.08;;;;;;;-0.69;100.00;99595.72;10413699;28;20433;-79
2023/03/07 23:02:43;;;;;;;0.08;0.08;;;;;;;-0.88;100.00;99603.16;10412931;28;20084;-79
2023/03/07 23:07:45;;;;;;;0.38;0.38;;;;;;;-0.81;100.00;99601.00;10413562;28;20099;-79
2023/03/07 23:12:49;;;;;;;0.32;0.32;;;;;;;-1.07;100.00;99609.78;10412302;28;20493;-80
2023/03/07 23:17:51;;;;;;;0.10;0.10;;;;;;;-1.24;100.00;99613.13;10414050;28;20107;-80
2023/03/07 23:22:52;;;;;;;0.03;0.03;;;;;;;-1.04;100.00;99609.97;10411991;28;20076;-80
2023/03/07 23:27:56;;;;;;;1.60;1.50;;;;;;;-0.99;100.00;99611.06;10412951;28;20072;-79
2023/03/07 23:32:58;;;;;;;0.50;0.50;;;;;;;-0.97;100.00;99606.97;10412646;28;20045;-79
2023/03/07 23:38:00;;;;;;;0.10;0.10;;;;;;;-1.10;100.00;99604.59;10411860;28;20080;-78